CDPK1: Cedar Creek Nr Cedar Point, KS

                                SHEF ID:       CDPK1     CEDAR C NR CEDAR POINT, KS
STATION TYPE:
Regulating: Stage = 13.00, Flow = 4281

PRECIP STAGE RIV-FLOW BAT-LOAD
in ft cfs volt
Ccp-Rev Ccp-Rev Ccp-Rev Ccp-Rev
(America/Chicago)
12/25 00:00 0.00 5.38 252 12.30
12/25 01:00 0.01 5.34 236 12.30
12/25 02:00 0.00 5.30 221 12.30
12/25 03:00 0.00 5.27 210 12.30
12/25 04:00 0.00 5.29 217 12.30
12/25 05:00 0.00 5.42 268 12.30
12/25 06:00 0.00 5.59 344 12.30
12/25 07:00 0.00 5.70 398 12.24
12/25 08:00 0.00 5.75 425 12.24
12/25 09:00 0.00 5.75 425 12.24
12/25 10:00 0.00 5.70 398 12.30
12/25 11:00 0.00 5.63 363 12.42
12/25 12:00 0.00 5.56 329 12.48
12/25 13:00 0.00 5.47 289 12.60
12/25 14:00 0.00 5.40 260 12.54
12/25 15:00 0.00 5.32 228 12.42
12/25 16:00 0.00 5.25 203 12.30
12/25 17:00 0.00 5.18 179 12.24
12/25 18:00 0.00 5.14 166 12.24
12/25 19:00 0.00 5.09 151 12.24
12/25 20:00 0.00 5.04 136 12.24
12/25 21:00 0.00 5.00 125 12.24
12/25 22:00 0.00 4.96 115 12.24
12/25 23:00 0.00 4.92 105 12.24
Data processed at Tue 26Dec2023 05:33 GMT

Parsing this webpage?

Checkout our new Data API! CWMSDataAPI (CDA)

All information presented herein is the property of the government of the United States of America and may be revised or deleted at any time without prior notice. Dissemination of this information without the expressed written consent of the Public Affairs Office, Tulsa District U.S. Army Corps of Engineers is strictly prohibited. These data are gathered electronically and, as presented, have NOT undergone any form of quality control. These data are NOT guaranteed to be valid or correct.